createdAt,value
2023-01-22T00:02:38.693Z,100367.06
2023-01-22T00:07:40.455Z,100358.22
2023-01-22T00:12:42.126Z,100363.84
2023-01-22T00:17:44.151Z,100356.56
2023-01-22T00:22:45.739Z,100351.72
2023-01-22T00:27:47.441Z,100353.25
2023-01-22T00:32:49.059Z,100365.78
2023-01-22T00:37:50.793Z,100369.38
2023-01-22T00:42:52.422Z,100379.38
2023-01-22T00:47:54.024Z,100383.63
2023-01-22T00:52:55.733Z,100383.97
2023-01-22T00:57:58.132Z,100401.56
2023-01-22T01:03:19.020Z,100391.00
2023-01-22T01:08:21.661Z,100380.03
2023-01-22T01:13:23.836Z,100396.81
2023-01-22T01:18:27.722Z,100426.09
2023-01-22T01:23:29.433Z,100414.53
2023-01-22T01:28:31.124Z,100408.06
2023-01-22T01:33:32.812Z,100395.09
2023-01-22T01:38:34.561Z,100396.03
2023-01-22T01:43:36.351Z,100423.88
2023-01-22T01:48:41.609Z,100416.94
2023-01-22T01:53:45.899Z,100412.75
2023-01-22T01:58:50.743Z,100402.94
2023-01-22T02:03:53.173Z,100387.94
2023-01-22T02:08:56.143Z,100400.91
2023-01-22T02:14:20.104Z,100404.16
2023-01-22T02:19:21.713Z,100406.13
2023-01-22T02:24:23.516Z,100410.91
2023-01-22T02:29:27.198Z,100409.28
2023-01-22T02:34:29.027Z,100397.50
2023-01-22T02:39:30.762Z,100399.97
2023-01-22T02:44:34.560Z,100394.41
2023-01-22T02:49:36.249Z,100381.75
2023-01-22T02:54:38.090Z,100382.63
2023-01-22T02:59:39.870Z,100375.63
2023-01-22T03:04:46.687Z,100374.22
2023-01-22T03:09:48.523Z,100377.75
2023-01-22T03:15:08.677Z,100377.06
2023-01-22T03:20:32.598Z,100384.75
2023-01-22T03:25:34.424Z,100378.03
2023-01-22T03:30:38.607Z,100373.41
2023-01-22T03:35:42.652Z,100364.00
2023-01-22T03:40:52.667Z,100358.69
2023-01-22T03:46:07.541Z,100353.16
2023-01-22T03:51:15.891Z,100365.91
2023-01-22T03:56:21.025Z,100359.91
2023-01-22T04:01:25.893Z,100367.78
2023-01-22T04:06:28.813Z,100360.25
2023-01-22T04:11:30.916Z,100354.81
2023-01-22T04:16:32.992Z,100361.03
2023-01-22T04:21:42.120Z,100375.63
2023-01-22T04:26:46.296Z,100353.59
2023-01-22T04:31:50.422Z,100356.84
2023-01-22T04:37:24.051Z,100371.34
2023-01-22T04:42:27.253Z,100364.72
2023-01-22T04:47:28.944Z,100374.03
2023-01-22T04:52:31.202Z,100380.66
2023-01-22T04:57:34.666Z,100387.41
2023-01-22T05:02:37.666Z,100396.31
2023-01-22T05:07:39.583Z,100396.31
2023-01-22T05:12:41.372Z,100401.94
2023-01-22T05:17:43.318Z,100411.50
2023-01-22T05:22:45.282Z,100412.94
2023-01-22T05:27:47.636Z,100415.25
2023-01-22T05:32:58.971Z,100420.72
2023-01-22T05:38:03.339Z,100415.25
2023-01-22T05:43:05.196Z,100424.91
2023-01-22T05:48:07.324Z,100428.16
2023-01-22T05:53:18.649Z,100423.97
2023-01-22T05:58:20.293Z,100423.56
2023-01-22T06:03:23.223Z,100416.25
2023-01-22T06:08:28.728Z,100424.13
2023-01-22T06:13:31.543Z,100428.75
2023-01-22T06:18:41.561Z,100433.16
2023-01-22T06:23:44.349Z,100427.84
2023-01-22T06:28:46.477Z,100436.22
2023-01-22T06:33:49.009Z,100426.44
2023-01-22T06:38:50.954Z,100433.56
2023-01-22T06:44:03.663Z,100438.91
2023-01-22T06:49:05.621Z,100439.78
2023-01-22T06:54:11.283Z,100447.66
2023-01-22T06:59:13.197Z,100449.88
2023-01-22T07:04:15.298Z,100454.75
2023-01-22T07:09:17.105Z,100453.19
2023-01-22T07:14:28.871Z,100465.00
2023-01-22T07:19:37.762Z,100463.84
2023-01-22T07:24:39.358Z,100475.59
2023-01-22T07:29:41.298Z,100474.13
2023-01-22T07:34:43.023Z,100476.16
2023-01-22T07:39:44.999Z,100472.41
2023-01-22T07:44:47.171Z,100474.31
2023-01-22T07:49:48.780Z,100476.50
2023-01-22T07:54:50.370Z,100490.84
2023-01-22T07:59:51.995Z,100495.72
2023-01-22T08:04:53.679Z,100501.75
2023-01-22T08:09:55.279Z,100499.13
2023-01-22T08:14:57.103Z,100500.13
2023-01-22T08:19:58.920Z,100503.75
2023-01-22T08:25:00.585Z,100505.63
2023-01-22T08:30:04.272Z,100503.91
2023-01-22T08:35:06.401Z,100501.63
2023-01-22T08:40:10.030Z,100510.28
2023-01-22T08:45:11.800Z,100521.25
2023-01-22T08:50:14.127Z,100528.31
2023-01-22T08:55:15.982Z,100538.59
2023-01-22T09:00:18.059Z,100537.78
2023-01-22T09:05:19.718Z,100542.25
2023-01-22T09:10:22.185Z,100554.56
2023-01-22T09:15:23.939Z,100547.03
2023-01-22T09:20:25.923Z,100546.56
2023-01-22T09:25:27.515Z,100552.88
2023-01-22T09:30:30.542Z,100561.69
2023-01-22T09:35:32.261Z,100560.50
2023-01-22T09:40:57.686Z,100565.53
2023-01-22T09:46:03.168Z,100568.31
2023-01-22T09:51:05.911Z,100581.16
2023-01-22T09:56:20.845Z,100568.31
2023-01-22T10:01:23.422Z,100569.69
2023-01-22T10:06:26.145Z,100569.19
2023-01-22T10:11:28.059Z,100574.13
2023-01-22T10:16:29.690Z,100565.31
2023-01-22T10:21:41.698Z,100581.91
2023-01-22T10:26:54.305Z,100582.13
2023-01-22T10:31:59.038Z,100584.22
2023-01-22T10:37:05.022Z,100574.13
2023-01-22T10:42:06.793Z,100580.69
2023-01-22T10:47:18.838Z,100579.94
2023-01-22T10:52:34.824Z,100577.81
2023-01-22T10:57:37.332Z,100578.84
2023-01-22T11:02:43.122Z,100582.66
2023-01-22T11:07:47.711Z,100586.16
2023-01-22T11:12:53.895Z,100580.41
2023-01-22T11:18:01.449Z,100580.66
2023-01-22T11:23:09.192Z,100571.69
2023-01-22T11:28:28.339Z,100574.25
2023-01-22T11:33:57.804Z,100579.69
2023-01-22T11:39:12.077Z,100577.84
2023-01-22T11:44:51.834Z,100575.25
2023-01-22T11:50:21.549Z,100575.97
2023-01-22T11:55:39.719Z,100573.88
2023-01-22T12:01:02.818Z,100575.09
2023-01-22T12:06:16.895Z,100579.22
2023-01-22T12:11:26.711Z,100586.25
2023-01-22T12:16:41.647Z,100589.31
2023-01-22T12:22:20.552Z,100587.97
2023-01-22T12:27:47.304Z,100586.22
2023-01-22T12:32:55.517Z,100593.53
2023-01-22T12:38:10.563Z,100595.97
2023-01-22T12:43:13.776Z,100595.03
2023-01-22T12:48:55.311Z,100607.69
2023-01-22T12:54:09.927Z,100613.47
2023-01-22T12:59:37.613Z,100625.09
2023-01-22T13:04:39.430Z,100627.59
2023-01-22T13:09:41.205Z,100632.47
2023-01-22T13:14:43.728Z,100637.25
2023-01-22T13:19:46.504Z,100644.78
2023-01-22T13:24:59.326Z,100649.28
2023-01-22T13:30:14.675Z,100666.56
2023-01-22T13:35:19.786Z,100657.47
2023-01-22T13:40:27.674Z,100650.81
2023-01-22T13:45:33.067Z,100657.13
2023-01-22T13:50:36.831Z,100668.44
2023-01-22T13:55:38.467Z,100679.13
2023-01-22T14:00:40.150Z,100679.31
2023-01-22T14:05:41.776Z,100686.78
2023-01-22T14:10:44.003Z,100685.38
2023-01-22T14:15:55.541Z,100690.34
2023-01-22T14:20:57.262Z,100690.88
2023-01-22T14:26:02.944Z,100697.53
2023-01-22T14:31:05.104Z,100691.94
2023-01-22T14:36:07.647Z,100712.56
2023-01-22T14:41:09.294Z,100721.03
2023-01-22T14:46:11.170Z,100706.88
2023-01-22T14:51:13.177Z,100717.38
2023-01-22T14:56:14.836Z,100722.91
2023-01-22T15:01:18.924Z,100721.66
2023-01-22T15:06:20.619Z,100733.47
2023-01-22T15:11:22.422Z,100733.44
2023-01-22T15:16:24.037Z,100757.78
2023-01-22T15:21:25.988Z,100761.50
2023-01-22T15:26:32.685Z,100770.81
2023-01-22T15:31:35.107Z,100780.91
2023-01-22T15:36:41.076Z,100785.88
2023-01-22T15:41:43.432Z,100791.81
2023-01-22T15:46:46.298Z,100805.34
2023-01-22T15:51:48.000Z,100824.22
2023-01-22T15:56:49.856Z,100824.22
2023-01-22T16:01:52.474Z,100822.31
2023-01-22T16:06:54.286Z,100815.09
2023-01-22T16:11:57.545Z,100814.03
2023-01-22T16:17:00.531Z,100808.69
2023-01-22T16:22:02.429Z,100830.16
2023-01-22T16:27:04.037Z,100841.41
2023-01-22T16:32:06.150Z,100842.38
2023-01-22T16:37:07.823Z,100849.22
2023-01-22T16:42:09.485Z,100856.47
2023-01-22T16:47:11.139Z,100860.69
2023-01-22T16:52:22.287Z,100867.53
2023-01-22T16:57:24.613Z,100880.91
2023-01-22T17:02:26.564Z,100881.63
2023-01-22T17:07:33.879Z,100877.91
2023-01-22T17:12:36.210Z,100888.13
2023-01-22T17:17:38.447Z,100895.78
2023-01-22T17:22:41.441Z,100888.53
2023-01-22T17:27:43.081Z,100897.75
2023-01-22T17:32:47.563Z,100899.88
2023-01-22T17:37:49.401Z,100908.16
2023-01-22T17:42:51.624Z,100912.56
2023-01-22T17:47:53.295Z,100917.13
2023-01-22T17:52:55.850Z,100921.53
2023-01-22T17:57:59.446Z,100930.50
2023-01-22T18:03:01.401Z,100919.91
2023-01-22T18:08:03.183Z,100939.91
2023-01-22T18:13:04.821Z,100930.56
2023-01-22T18:18:06.655Z,100944.78
2023-01-22T18:23:08.275Z,100961.78
2023-01-22T18:28:10.290Z,100967.69
2023-01-22T18:33:14.943Z,100981.78
2023-01-22T18:38:20.711Z,100986.75
2023-01-22T18:43:22.702Z,100994.19
2023-01-22T18:48:24.588Z,100991.53
2023-01-22T18:53:26.251Z,100984.81
2023-01-22T18:58:34.092Z,100991.69
2023-01-22T19:03:36.279Z,100994.97
2023-01-22T19:08:39.389Z,100999.34
2023-01-22T19:13:43.104Z,101005.25
2023-01-22T19:18:48.842Z,101007.78
2023-01-22T19:23:53.642Z,101006.31
2023-01-22T19:28:58.534Z,101012.53
2023-01-22T19:34:01.516Z,101011.53
2023-01-22T19:39:05.602Z,101004.28
2023-01-22T19:44:09.241Z,101012.78
2023-01-22T19:49:12.960Z,101021.72
2023-01-22T19:54:14.801Z,101053.50
2023-01-22T19:59:19.723Z,101058.22
2023-01-22T20:04:28.705Z,101062.66
2023-01-22T20:09:33.367Z,101080.31
2023-01-22T20:14:39.092Z,101091.31
2023-01-22T20:19:42.150Z,101088.41
2023-01-22T20:24:44.047Z,101095.84
2023-01-22T20:29:45.740Z,101083.34
2023-01-22T20:34:48.963Z,101083.88
2023-01-22T20:39:50.663Z,101080.53
2023-01-22T20:44:52.366Z,101084.31
2023-01-22T20:49:53.989Z,101093.75
2023-01-22T20:55:01.698Z,101093.75
2023-01-22T21:00:05.150Z,101081.53
2023-01-22T21:05:06.960Z,101079.47
2023-01-22T21:10:09.420Z,101085.44
2023-01-22T21:15:11.286Z,101094.63
2023-01-22T21:20:13.275Z,101100.63
2023-01-22T21:25:14.915Z,101107.19
2023-01-22T21:30:17.058Z,101122.38
2023-01-22T21:35:18.917Z,101128.88
2023-01-22T21:40:21.119Z,101122.84
2023-01-22T21:45:41.620Z,101133.25
2023-01-22T21:50:44.030Z,101130.28
2023-01-22T21:55:52.836Z,101120.91
2023-01-22T22:00:57.299Z,101130.78
2023-01-22T22:06:02.332Z,101134.56
2023-01-22T22:11:04.743Z,101137.47
2023-01-22T22:16:08.503Z,101125.47
2023-01-22T22:21:11.482Z,101143.34
2023-01-22T22:26:13.107Z,101150.72
2023-01-22T22:31:16.420Z,101171.75
2023-01-22T22:36:20.496Z,101163.38
2023-01-22T22:41:24.609Z,101179.31
2023-01-22T22:46:29.444Z,101168.63
2023-01-22T22:51:34.069Z,101178.16
2023-01-22T22:56:35.915Z,101175.75
2023-01-22T23:01:37.894Z,101188.38
2023-01-22T23:06:42.588Z,101180.63
2023-01-22T23:11:44.440Z,101172.00
2023-01-22T23:16:46.184Z,101166.22
2023-01-22T23:22:05.834Z,101153.81
2023-01-22T23:27:07.412Z,101150.72
2023-01-22T23:32:09.008Z,101140.03
2023-01-22T23:37:10.646Z,101147.47
2023-01-22T23:42:12.285Z,101137.44
2023-01-22T23:47:14.105Z,101135.22
2023-01-22T23:52:15.895Z,101152.38
2023-01-22T23:57:17.599Z,101145.75
